Time;durP1;ratioP1;P1;durP2;ratioP2;P2;SDS_P1;SDS_P2;PMS_P1;PMS_P2;Temp;Humidity;BMP_temperature;BMP_pressure;BME280_temperature;BME280_humidity;BME280_pressure;Samples;Min_cycle;Max_cycle;Signal;HPM_P1;HPM_P2
2021/06/07 00:01:36;;;;;;;3.98;3.37;;;;;;;14.35;64.60;96863.79;1723972;80;20977;-77
2021/06/07 00:04:05;;;;;;;5.20;4.03;;;;;;;14.31;64.56;96863.34;1741738;80;20989;-77
2021/06/07 00:06:31;;;;;;;5.72;3.20;;;;;;;14.28;64.92;96862.43;1732713;82;21059;-77
2021/06/07 00:08:57;;;;;;;4.08;3.45;;;;;;;14.30;64.90;96866.96;1729719;82;21251;-77
2021/06/07 00:11:23;;;;;;;6.62;3.87;;;;;;;14.30;64.77;96869.58;1760894;81;20945;-77
2021/06/07 00:13:52;;;;;;;4.08;3.30;;;;;;;14.30;64.66;96863.03;1772100;80;20913;-77
2021/06/07 00:16:17;;;;;;;4.37;3.98;;;;;;;14.30;64.64;96861.73;1777171;80;20924;-77
2021/06/07 00:18:43;;;;;;;4.12;3.55;;;;;;;14.29;64.82;96860.63;1778402;81;21246;-77
2021/06/07 00:21:17;;;;;;;4.30;3.47;;;;;;;14.24;64.85;96856.48;1773902;81;20997;-77
2021/06/07 00:23:43;;;;;;;3.67;3.37;;;;;;;14.21;65.03;96860.30;1772216;81;21333;-77
2021/06/07 00:26:09;;;;;;;5.12;3.85;;;;;;;14.17;65.23;96859.57;1778449;81;21004;-77
2021/06/07 00:28:34;;;;;;;4.35;3.50;;;;;;;14.12;65.43;96856.20;1773097;80;21030;-77
2021/06/07 00:31:02;;;;;;;3.72;3.40;;;;;;;14.09;65.58;96856.59;1765390;80;20970;-77
2021/06/07 00:33:28;;;;;;;3.55;2.87;;;;;;;14.08;65.55;96853.67;1700492;84;20988;-77
2021/06/07 00:35:53;;;;;;;3.58;3.27;;;;;;;14.07;65.92;96848.14;1698983;82;21025;-77
2021/06/07 00:38:19;;;;;;;3.30;3.00;;;;;;;14.06;66.13;96849.95;1775941;80;21004;-77
2021/06/07 00:40:45;;;;;;;3.95;3.15;;;;;;;14.06;66.02;96849.95;1772152;80;21040;-77
2021/06/07 00:43:11;;;;;;;3.98;3.37;;;;;;;14.04;66.08;96845.42;1772163;80;21171;-77
2021/06/07 00:45:39;;;;;;;4.60;3.35;;;;;;;14.04;65.92;96848.53;1768001;80;20870;-77
2021/06/07 00:48:07;;;;;;;3.70;3.15;;;;;;;14.01;65.87;96848.92;1767252;80;20920;-77
2021/06/07 00:50:49;;;;;;;3.90;3.60;;;;;;;13.99;66.11;96852.20;1753626;81;21303;-77
2021/06/07 00:53:17;;;;;;;3.67;3.25;;;;;;;13.96;66.22;96849.47;1777139;80;21294;-77
2021/06/07 00:55:51;;;;;;;3.55;3.00;;;;;;;13.95;66.24;96853.09;1732640;81;20968;-77
2021/06/07 00:58:19;;;;;;;6.10;3.65;;;;;;;13.96;66.10;96849.47;1776383;80;20881;-77
2021/06/07 01:00:44;;;;;;;3.83;3.37;;;;;;;13.96;65.96;96852.59;1777209;80;20929;-77
2021/06/07 01:03:13;;;;;;;4.15;3.12;;;;;;;13.95;65.92;96842.64;1778403;81;20909;-77
2021/06/07 01:05:40;;;;;;;4.83;3.30;;;;;;;13.93;65.99;96845.14;1776145;81;20952;-77
2021/06/07 01:08:06;;;;;;;3.58;3.27;;;;;;;13.91;66.74;96840.61;1772318;80;20945;-77
2021/06/07 01:10:33;;;;;;;3.40;3.05;;;;;;;13.89;66.68;96841.30;1776099;80;20921;-77
2021/06/07 01:13:01;;;;;;;3.95;3.08;;;;;;;13.85;66.46;96842.69;1777652;81;21285;-77
2021/06/07 01:15:29;;;;;;;4.17;2.77;;;;;;;13.86;66.62;96839.08;1773002;81;21285;-77
2021/06/07 01:17:56;;;;;;;5.20;3.22;;;;;;;13.85;66.58;96839.58;1739140;81;20984;-77
2021/06/07 01:20:22;;;;;;;4.83;3.30;;;;;;;13.85;66.28;96838.27;1776378;80;21313;-77
2021/06/07 01:22:49;;;;;;;4.65;2.87;;;;;;;13.85;66.33;96830.94;1773842;81;20929;-77
2021/06/07 01:25:28;;;;;;;4.97;3.20;;;;;;;13.84;66.54;96828.02;1772402;80;20949;-77
2021/06/07 01:27:54;;;;;;;3.80;3.08;;;;;;;13.81;66.79;96832.59;1774110;80;20897;-80
2021/06/07 01:30:24;;;;;;;5.58;3.40;;;;;;;13.78;67.06;96832.17;1766623;80;21005;-80
2021/06/07 01:32:50;;;;;;;4.15;2.90;;;;;;;13.75;67.04;96826.84;1770886;80;20897;-80
2021/06/07 01:35:16;;;;;;;4.08;3.20;;;;;;;13.74;67.01;96829.14;1771769;80;21262;-80
2021/06/07 01:37:42;;;;;;;3.40;3.10;;;;;;;13.74;66.77;96820.00;1768905;80;20917;-80
2021/06/07 01:40:13;;;;;;;4.05;2.80;;;;;;;13.75;66.54;96827.34;1776656;80;20957;-80
2021/06/07 01:42:39;;;;;;;4.97;2.90;;;;;;;13.72;66.52;96819.39;1775642;80;21041;-80
2021/06/07 01:45:07;;;;;;;4.08;2.90;;;;;;;13.71;66.55;96826.11;1755745;81;20964;-80
2021/06/07 01:47:33;;;;;;;3.87;2.67;;;;;;;13.68;66.62;96821.27;1780091;80;20996;-80
2021/06/07 01:49:58;;;;;;;6.33;3.20;;;;;;;13.66;66.90;96816.72;1778487;80;20972;-80
2021/06/07 01:52:24;;;;;;;3.17;2.87;;;;;;;13.63;66.97;96819.20;1777232;80;21286;-80
2021/06/07 01:54:50;;;;;;;3.45;2.50;;;;;;;13.64;67.11;96818.21;1775208;81;20957;-80
2021/06/07 01:57:16;;;;;;;3.40;2.90;;;;;;;13.65;67.24;96822.94;1778965;80;20953;-80
2021/06/07 01:59:42;;;;;;;4.53;3.27;;;;;;;13.66;67.21;96828.47;1770144;80;20888;-80
2021/06/07 02:02:07;;;;;;;3.87;2.90;;;;;;;13.64;67.18;96823.94;1764436;81;20921;-80
2021/06/07 02:04:33;;;;;;;4.08;3.08;;;;;;;13.64;67.13;96823.94;1780566;80;20904;-80
2021/06/07 02:07:00;;;;;;;3.83;3.47;;;;;;;13.63;67.29;96824.44;1756131;80;20996;-80
2021/06/07 02:09:25;;;;;;;4.70;3.40;;;;;;;13.62;67.21;96833.27;1780930;80;21298;-80
2021/06/07 02:11:51;;;;;;;5.20;3.12;;;;;;;13.60;67.06;96828.73;1777321;80;21025;-80
2021/06/07 02:14:17;;;;;;;3.87;3.47;;;;;;;13.59;67.01;96821.90;1759224;80;21008;-81
2021/06/07 02:16:43;;;;;;;3.83;3.42;;;;;;;13.61;67.11;96825.63;1752310;81;21274;-80
2021/06/07 02:19:09;;;;;;;3.77;3.37;;;;;;;13.65;67.00;96826.85;1771071;80;20973;-80
2021/06/07 02:21:36;;;;;;;4.70;3.02;;;;;;;13.66;66.91;96827.97;1768788;80;20981;-80
2021/06/07 02:24:07;;;;;;;4.45;3.08;;;;;;;13.67;66.73;96824.39;1772256;80;21023;-81
2021/06/07 02:26:33;;;;;;;3.77;3.08;;;;;;;13.66;66.86;96821.44;1780181;80;20885;-80
2021/06/07 02:29:06;;;;;;;3.72;3.00;;;;;;;13.65;67.14;96819.83;1775624;80;20969;-80
2021/06/07 02:31:33;;;;;;;3.58;3.27;;;;;;;13.63;67.27;96821.02;1765474;80;20954;-80
2021/06/07 02:33:59;;;;;;;5.72;3.25;;;;;;;13.59;67.38;96816.67;1752039;81;21421;-80
2021/06/07 02:36:28;;;;;;;6.80;3.47;;;;;;;13.56;67.35;96822.28;1771615;81;20885;-80
2021/06/07 02:38:54;;;;;;;4.75;3.33;;;;;;;13.54;67.42;96824.28;1756070;81;20985;-80
2021/06/07 02:41:20;;;;;;;4.97;3.92;;;;;;;13.55;67.52;96819.87;1761087;80;21001;-80
2021/06/07 02:43:47;;;;;;;4.33;3.52;;;;;;;13.56;67.27;96818.37;1764401;81;20913;-81
2021/06/07 02:46:12;;;;;;;4.08;3.67;;;;;;;13.56;67.39;96821.48;1761634;81;21279;-80
2021/06/07 02:48:38;;;;;;;4.12;3.72;;;;;;;13.53;67.55;96818.75;1755983;81;20954;-80
2021/06/07 02:51:04;;;;;;;3.87;3.58;;;;;;;13.49;67.82;96821.41;1765136;81;20961;-80
2021/06/07 02:53:30;;;;;;;5.67;3.33;;;;;;;13.47;67.77;96819.48;1770244;80;20940;-80
2021/06/07 02:55:56;;;;;;;5.72;3.60;;;;;;;13.47;67.68;96820.80;1750658;81;20900;-80
2021/06/07 02:58:23;;;;;;;4.20;3.70;;;;;;;13.49;67.91;96821.41;1758083;80;20925;-80
2021/06/07 03:00:53;;;;;;;5.55;3.33;;;;;;;13.48;67.89;96819.30;1743563;81;21020;-80
2021/06/07 03:03:19;;;;;;;4.75;3.58;;;;;;;13.47;68.23;96819.48;1772296;80;20968;-80
2021/06/07 03:05:46;;;;;;;4.05;3.50;;;;;;;13.46;68.20;96820.48;1747809;81;20965;-80
2021/06/07 03:08:15;;;;;;;4.30;3.58;;;;;;;13.43;68.28;96824.28;1768709;80;20932;-80
2021/06/07 03:10:43;;;;;;;4.12;3.65;;;;;;;13.41;68.68;96826.28;1675755;84;20961;-80
2021/06/07 03:13:09;;;;;;;3.87;3.47;;;;;;;13.38;68.55;96824.05;1743242;81;21337;-80
2021/06/07 03:15:35;;;;;;;4.47;3.72;;;;;;;13.35;68.59;96828.84;1749035;81;20873;-80
2021/06/07 03:18:01;;;;;;;4.25;3.67;;;;;;;13.34;68.87;96831.95;1767970;81;20886;-80
2021/06/07 03:20:29;;;;;;;3.62;3.10;;;;;;;13.34;68.81;96835.88;1727400;82;21247;-80
2021/06/07 03:22:57;;;;;;;3.65;3.25;;;;;;;13.35;68.95;96834.88;1769144;81;20910;-80
2021/06/07 03:25:23;;;;;;;4.12;3.20;;;;;;;13.36;68.92;96840.41;1756092;81;20929;-80
2021/06/07 03:27:49;;;;;;;4.60;3.60;;;;;;;13.38;69.14;96839.72;1763234;81;21242;-80
2021/06/07 03:30:16;;;;;;;4.47;4.08;;;;;;;13.34;69.20;96833.27;1777211;81;20988;-80
2021/06/07 03:32:42;;;;;;;5.03;4.40;;;;;;;13.39;69.14;96847.05;1773155;80;20975;-80
2021/06/07 03:35:10;;;;;;;7.25;4.58;;;;;;;13.39;69.20;96847.05;1778739;80;21234;-80
2021/06/07 03:37:37;;;;;;;4.60;4.00;;;;;;;13.39;69.10;96851.77;1781506;80;20965;-80
2021/06/07 03:40:07;;;;;;;6.28;4.33;;;;;;;13.42;69.11;96847.47;1778089;80;20977;-80
2021/06/07 03:42:33;;;;;;;5.83;4.37;;;;;;;13.47;69.27;96845.09;1754910;80;21028;-80
2021/06/07 03:44:59;;;;;;;4.47;4.08;;;;;;;13.50;69.35;96849.96;1781306;80;20940;-80
2021/06/07 03:47:25;;;;;;;5.55;4.00;;;;;;;13.48;69.41;96851.93;1780002;80;20901;-80
2021/06/07 03:49:50;;;;;;;7.30;3.90;;;;;;;13.49;69.34;96856.66;1780447;81;20920;-80
2021/06/07 03:52:16;;;;;;;5.28;4.15;;;;;;;13.48;69.53;96857.15;1760033;80;20941;-80
2021/06/07 03:54:42;;;;;;;4.72;4.30;;;;;;;13.47;69.56;96855.53;1781487;80;20877;-80
2021/06/07 03:57:08;;;;;;;4.67;4.22;;;;;;;13.48;69.73;96859.76;1771052;80;20907;-80
2021/06/07 03:59:35;;;;;;;4.20;3.50;;;;;;;13.50;69.92;96863.02;1781118;80;20909;-80
2021/06/07 04:02:07;;;;;;;4.28;3.50;;;;;;;13.52;70.21;96861.52;1781792;80;20893;-80
2021/06/07 04:04:31;;;;;;;5.25;4.20;;;;;;;13.54;70.34;96859.53;1779485;81;20905;-80
2021/06/07 04:06:56;;;;;;;4.87;4.15;;;;;;;13.56;70.53;96864.56;1759798;81;21207;-80
2021/06/07 04:09:22;;;;;;;4.53;4.12;;;;;;;13.55;70.79;96861.14;1781743;80;20908;-81
2021/06/07 04:11:49;;;;;;;5.60;4.80;;;;;;;13.53;70.85;96861.02;1776514;80;21595;-80
2021/06/07 04:14:15;;;;;;;6.15;4.90;;;;;;;13.53;70.83;96861.02;1769211;81;20900;-80
2021/06/07 04:16:40;;;;;;;6.58;4.75;;;;;;;13.53;70.94;96864.94;1769160;80;20984;-80
2021/06/07 04:19:06;;;;;;;5.78;4.50;;;;;;;13.54;71.12;96864.75;1750723;80;21302;-80
2021/06/07 04:21:32;;;;;;;5.30;4.90;;;;;;;13.56;71.17;96861.95;1775744;80;21009;-80
2021/06/07 04:23:57;;;;;;;4.45;4.05;;;;;;;13.59;71.32;96864.17;1773955;80;20964;-80
2021/06/07 04:26:24;;;;;;;6.40;4.70;;;;;;;13.63;71.45;96866.71;1775726;80;21000;-80
2021/06/07 04:28:49;;;;;;;5.00;4.50;;;;;;;13.62;71.65;96868.52;1773617;80;21246;-80
2021/06/07 04:31:15;;;;;;;5.55;5.05;;;;;;;13.62;71.76;96869.82;1777694;80;20925;-80
2021/06/07 04:33:41;;;;;;;6.40;4.92;;;;;;;13.61;71.98;96866.91;1777004;80;20901;-80
2021/06/07 04:36:07;;;;;;;6.45;4.72;;;;;;;13.64;72.02;96873.55;1772642;80;20940;-80
2021/06/07 04:38:32;;;;;;;5.17;4.33;;;;;;;13.69;71.96;96874.62;1776816;81;21250;-80
2021/06/07 04:40:58;;;;;;;4.80;4.30;;;;;;;13.77;72.05;96875.77;1772473;80;21011;-80
2021/06/07 04:43:24;;;;;;;5.80;4.25;;;;;;;13.82;72.25;96877.30;1771764;80;21009;-80
2021/06/07 04:45:50;;;;;;;5.90;5.30;;;;;;;13.89;72.14;96877.88;1754684;81;21326;-80
2021/06/07 04:48:16;;;;;;;5.60;4.97;;;;;;;13.94;72.17;96874.98;1770787;81;20969;-80
2021/06/07 04:50:42;;;;;;;5.92;4.33;;;;;;;14.00;72.27;96881.27;1770294;81;20951;-80
2021/06/07 04:53:09;;;;;;;5.97;4.62;;;;;;;14.02;72.35;96877.47;1758568;80;20966;-80
2021/06/07 04:55:45;;;;;;;5.53;4.00;;;;;;;14.08;72.26;96876.69;1749889;80;21295;-80
2021/06/07 04:58:14;;;;;;;4.25;3.70;;;;;;;14.15;72.27;96879.33;1776297;80;20916;-80
2021/06/07 05:00:42;;;;;;;4.45;4.05;;;;;;;14.24;72.22;96874.28;1757682;81;20989;-80
2021/06/07 05:03:08;;;;;;;5.40;4.30;;;;;;;14.32;72.41;96879.36;1753337;80;20913;-80
2021/06/07 05:05:34;;;;;;;5.65;4.30;;;;;;;14.38;72.25;96885.12;1775817;80;21214;-80
2021/06/07 05:08:00;;;;;;;5.22;4.30;;;;;;;14.43;72.25;96879.30;1754263;80;20885;-80
2021/06/07 05:10:26;;;;;;;6.72;5.87;;;;;;;14.49;72.65;96884.31;1747064;80;20909;-80
2021/06/07 05:12:51;;;;;;;8.08;6.05;;;;;;;14.52;72.71;96888.64;1761035;81;20945;-80
2021/06/07 05:15:17;;;;;;;7.85;5.42;;;;;;;14.59;72.91;96887.35;1775397;81;20944;-80
2021/06/07 05:17:43;;;;;;;6.12;5.50;;;;;;;14.67;72.47;96889.32;1771028;80;20898;-80
2021/06/07 05:20:16;;;;;;;7.33;6.12;;;;;;;14.74;72.70;96901.11;1766389;80;20980;-80
2021/06/07 05:22:42;;;;;;;9.60;6.53;;;;;;;14.78;72.66;96898.90;1751039;80;20941;-80
2021/06/07 05:25:10;;;;;;;10.05;5.87;;;;;;;14.81;72.82;96896.72;1747920;80;20913;-80
2021/06/07 05:27:35;;;;;;;6.70;5.83;;;;;;;14.83;73.20;96899.14;1765432;81;20973;-80
2021/06/07 05:30:02;;;;;;;6.37;5.67;;;;;;;14.84;73.07;96908.09;1743730;80;21251;-80
2021/06/07 05:32:28;;;;;;;5.08;4.58;;;;;;;14.89;73.00;96905.70;1763960;80;20893;-80
2021/06/07 05:34:54;;;;;;;5.70;4.92;;;;;;;14.97;73.04;96908.16;1782274;80;21322;-80
2021/06/07 05:37:20;;;;;;;6.12;5.42;;;;;;;15.06;73.08;96903.53;1786146;80;20873;-80
2021/06/07 05:39:48;;;;;;;7.30;6.50;;;;;;;15.13;72.89;96903.55;1780942;80;20961;-80
2021/06/07 05:42:14;;;;;;;7.28;5.75;;;;;;;15.24;72.84;96905.09;1752136;80;21000;-80
2021/06/07 05:44:39;;;;;;;9.00;7.62;;;;;;;15.33;73.09;96906.23;1773916;80;20932;-80
2021/06/07 05:47:05;;;;;;;8.33;6.45;;;;;;;15.37;72.88;96912.67;1775814;80;20908;-80
2021/06/07 05:49:31;;;;;;;6.42;5.55;;;;;;;15.43;72.77;96909.25;1781945;80;20908;-80
2021/06/07 05:51:56;;;;;;;8.15;5.97;;;;;;;15.54;72.68;96909.98;1785746;80;20977;-80
2021/06/07 05:54:22;;;;;;;9.55;7.08;;;;;;;15.67;72.75;96914.47;1773512;80;21004;-80
2021/06/07 05:56:53;;;;;;;7.28;6.58;;;;;;;15.77;72.88;96910.42;1770320;80;21286;-79
2021/06/07 05:59:18;;;;;;;8.35;6.95;;;;;;;15.85;72.48;96905.50;1759609;80;20996;-79
2021/06/07 06:01:44;;;;;;;6.90;6.25;;;;;;;15.96;71.89;96901.48;1774557;80;21344;-79
2021/06/07 06:04:10;;;;;;;8.85;6.62;;;;;;;16.09;71.72;96902.25;1781084;80;20984;-79
2021/06/07 06:06:36;;;;;;;6.97;5.83;;;;;;;16.16;72.14;96895.70;1759180;80;20941;-78
2021/06/07 06:09:02;;;;;;;6.62;5.90;;;;;;;16.24;71.91;96895.47;1766035;80;20901;-78
2021/06/07 06:11:28;;;;;;;6.87;5.80;;;;;;;16.36;71.52;96895.66;1769236;80;20925;-79
2021/06/07 06:13:53;;;;;;;7.30;6.45;;;;;;;16.48;71.49;96893.52;1783263;80;20916;-79
2021/06/07 06:16:19;;;;;;;6.50;5.92;;;;;;;16.63;70.96;96899.02;1780452;80;20936;-79
2021/06/07 06:18:46;;;;;;;7.95;6.40;;;;;;;16.71;71.21;96898.30;1759838;80;20971;-79
2021/06/07 06:21:12;;;;;;;7.30;6.47;;;;;;;16.74;71.17;96902.33;1765349;80;20924;-79
2021/06/07 06:23:39;;;;;;;6.92;5.42;;;;;;;16.79;70.50;96903.33;1785568;80;20909;-79
2021/06/07 06:26:06;;;;;;;6.28;5.67;;;;;;;16.94;70.42;96900.95;1783721;80;20924;-79
2021/06/07 06:28:34;;;;;;;6.28;5.60;;;;;;;17.05;71.05;96906.84;1785501;80;20909;-79
2021/06/07 06:31:01;;;;;;;8.80;6.83;;;;;;;17.13;71.23;96909.23;1780991;80;20961;-79
2021/06/07 06:33:27;;;;;;;9.23;6.92;;;;;;;17.25;70.56;96901.52;1777003;80;20956;-79
2021/06/07 06:35:53;;;;;;;6.62;5.37;;;;;;;17.38;70.05;96908.78;1775291;80;21262;-79
2021/06/07 06:38:19;;;;;;;6.65;5.92;;;;;;;17.49;70.49;96903.88;1773333;80;21044;-79
2021/06/07 06:40:45;;;;;;;6.78;5.70;;;;;;;17.58;70.49;96909.19;1745835;80;20960;-79
2021/06/07 06:43:10;;;;;;;7.65;6.25;;;;;;;17.68;70.47;96913.47;1744749;81;20964;-79
2021/06/07 06:45:36;;;;;;;6.25;5.60;;;;;;;17.83;68.48;96908.70;1769869;80;20935;-79
2021/06/07 06:48:05;;;;;;;8.20;6.00;;;;;;;17.99;69.03;96911.31;1774829;81;20869;-79
2021/06/07 06:50:34;;;;;;;7.33;6.30;;;;;;;18.13;68.17;96912.00;1774779;81;20917;-79
2021/06/07 06:53:04;;;;;;;6.72;6.08;;;;;;;18.32;66.94;96916.27;1776523;80;20961;-79
2021/06/07 06:55:31;;;;;;;6.72;5.62;;;;;;;18.50;67.47;96918.11;1772617;81;20913;-79
2021/06/07 06:57:56;;;;;;;6.97;5.67;;;;;;;18.63;67.08;96919.33;1775786;81;20925;-79
2021/06/07 07:00:23;;;;;;;6.20;5.42;;;;;;;18.73;67.01;96917.51;1776523;81;20956;-79
2021/06/07 07:02:49;;;;;;;8.43;6.12;;;;;;;18.81;66.74;96913.25;1773174;81;20894;-79
2021/06/07 07:05:15;;;;;;;7.20;5.33;;;;;;;18.88;67.11;96922.69;1754244;81;20928;-79
2021/06/07 07:07:40;;;;;;;6.47;5.85;;;;;;;19.00;66.40;96924.56;1760461;81;21297;-79
2021/06/07 07:10:08;;;;;;;6.72;5.15;;;;;;;19.11;65.42;96924.63;1757384;80;20966;-79
2021/06/07 07:12:34;;;;;;;6.22;4.95;;;;;;;19.21;64.88;96929.89;1765749;81;20968;-79
2021/06/07 07:15:00;;;;;;;6.58;4.90;;;;;;;19.31;65.78;96934.91;1754744;80;20960;-79
2021/06/07 07:17:28;;;;;;;5.22;4.80;;;;;;;19.36;64.18;96929.78;1757437;80;21016;-79
2021/06/07 07:19:54;;;;;;;7.22;4.75;;;;;;;19.45;64.11;96935.02;1749368;81;21281;-79
2021/06/07 07:22:19;;;;;;;6.30;4.70;;;;;;;19.52;63.72;96938.06;1766700;80;20979;-79
2021/06/07 07:24:47;;;;;;;5.22;4.78;;;;;;;19.58;62.31;96935.38;1750945;80;21004;-78
2021/06/07 07:27:14;;;;;;;5.78;5.08;;;;;;;19.66;63.32;96942.95;1772570;81;20956;-79
2021/06/07 07:29:42;;;;;;;4.92;4.00;;;;;;;19.74;60.74;96942.64;1775424;80;21032;-79
2021/06/07 07:32:08;;;;;;;4.55;4.15;;;;;;;19.78;61.29;96945.63;1768958;80;20930;-79
2021/06/07 07:34:34;;;;;;;4.97;4.47;;;;;;;19.84;59.79;96936.00;1760068;80;21234;-79
2021/06/07 07:37:01;;;;;;;5.58;4.40;;;;;;;19.91;59.58;96943.31;1769959;80;20897;-79
2021/06/07 07:39:26;;;;;;;6.22;4.70;;;;;;;19.99;59.13;96946.91;1774896;81;21345;-79
2021/06/07 07:41:52;;;;;;;5.62;4.55;;;;;;;20.01;61.40;96945.69;1773685;80;20969;-79
2021/06/07 07:44:19;;;;;;;6.17;4.12;;;;;;;20.05;59.82;96944.19;1758382;80;20917;-79
2021/06/07 07:46:45;;;;;;;5.03;4.00;;;;;;;20.12;59.81;96946.71;1753783;81;21240;-79
2021/06/07 07:49:11;;;;;;;5.83;4.12;;;;;;;20.19;58.59;96946.62;1766348;80;21025;-79
2021/06/07 07:51:39;;;;;;;5.72;4.00;;;;;;;20.24;58.69;96947.53;1774298;81;21222;-79
2021/06/07 07:54:06;;;;;;;4.60;4.20;;;;;;;20.28;59.21;96946.55;1772916;81;20885;-79
2021/06/07 07:56:32;;;;;;;5.87;3.72;;;;;;;20.33;57.90;96950.09;1775638;81;20965;-79
2021/06/07 07:58:58;;;;;;;4.30;3.90;;;;;;;20.42;57.09;96945.84;1766019;80;21394;-79
2021/06/07 08:01:25;;;;;;;5.12;3.87;;;;;;;20.48;56.55;96947.55;1778192;81;20922;-79
2021/06/07 08:03:51;;;;;;;5.05;3.80;;;;;;;20.54;55.15;96956.69;1777131;81;20914;-79
2021/06/07 08:06:17;;;;;;;5.15;3.72;;;;;;;20.61;55.48;96958.67;1769824;80;20961;-79
2021/06/07 08:08:43;;;;;;;4.08;3.70;;;;;;;20.72;54.47;96953.11;1730599;82;21267;-79
2021/06/07 08:11:11;;;;;;;5.17;3.55;;;;;;;20.83;54.08;96948.34;1744153;81;20964;-79
2021/06/07 08:13:39;;;;;;;4.22;2.98;;;;;;;20.96;54.58;96948.58;1766050;80;21350;-79
2021/06/07 08:16:05;;;;;;;5.87;3.22;;;;;;;21.09;53.76;96946.99;1777609;81;20893;-79
2021/06/07 08:18:31;;;;;;;3.65;3.22;;;;;;;21.24;52.53;96949.12;1777826;81;20956;-79
2021/06/07 08:20:56;;;;;;;4.45;2.77;;;;;;;21.33;54.82;96950.41;1777353;80;21218;-79
2021/06/07 08:23:22;;;;;;;3.25;2.47;;;;;;;21.41;50.40;96952.66;1777997;80;20957;-79
2021/06/07 08:25:48;;;;;;;3.70;2.77;;;;;;;21.48;51.80;96955.17;1765721;80;20949;-79
2021/06/07 08:28:14;;;;;;;3.00;2.20;;;;;;;21.51;52.50;96935.67;1756656;81;20889;-79
2021/06/07 08:30:40;;;;;;;3.62;2.50;;;;;;;21.71;48.72;96951.09;1728384;81;21000;-79
2021/06/07 08:33:06;;;;;;;2.60;2.40;;;;;;;21.81;49.78;96957.08;1706841;81;20923;-79
2021/06/07 08:35:32;;;;;;;2.72;2.10;;;;;;;21.92;47.40;96950.90;1702796;81;20988;-80
2021/06/07 08:37:58;;;;;;;3.27;2.70;;;;;;;22.08;46.80;96954.11;1724318;81;21241;-80
2021/06/07 08:40:23;;;;;;;2.42;2.08;;;;;;;22.19;47.08;96954.27;1705836;81;20955;-80
2021/06/07 08:42:49;;;;;;;3.12;2.58;;;;;;;22.35;45.84;96960.08;1716730;82;21068;-79
2021/06/07 08:45:18;;;;;;;3.33;2.20;;;;;;;22.48;45.91;96957.63;1711095;82;20941;-79
2021/06/07 08:47:45;;;;;;;3.25;2.55;;;;;;;22.55;40.57;96941.03;1706436;81;21301;-79
2021/06/07 08:50:11;;;;;;;3.02;2.52;;;;;;;22.65;44.92;96951.77;1721912;81;20952;-79
2021/06/07 08:52:37;;;;;;;2.75;2.12;;;;;;;22.80;43.85;96948.00;1703186;82;20938;-79
2021/06/07 08:55:05;;;;;;;4.67;3.15;;;;;;;22.94;43.47;96947.95;1703182;82;20894;-79
2021/06/07 08:57:42;;;;;;;3.15;2.60;;;;;;;23.09;42.75;96940.69;1731740;82;20972;-79
2021/06/07 09:00:11;;;;;;;3.12;2.55;;;;;;;23.13;42.56;96943.14;1732562;82;21258;-80
2021/06/07 09:02:39;;;;;;;3.17;2.87;;;;;;;23.18;43.04;96943.19;1708495;81;21025;-79
2021/06/07 09:05:06;;;;;;;2.52;2.27;;;;;;;23.29;43.69;96946.23;1714740;83;21005;-80
2021/06/07 09:07:32;;;;;;;3.05;2.42;;;;;;;23.34;41.83;96949.46;1732350;81;21245;-79
2021/06/07 09:10:11;;;;;;;3.25;2.52;;;;;;;23.39;43.04;96954.02;1693318;81;20991;-79
2021/06/07 09:12:44;;;;;;;3.50;2.87;;;;;;;23.51;42.46;96945.39;1717248;81;20937;-80
2021/06/07 09:15:27;;;;;;;3.45;3.15;;;;;;;23.54;41.43;96952.31;1705622;82;21250;-79
2021/06/07 09:17:52;;;;;;;3.17;2.87;;;;;;;23.63;41.50;96947.41;1703324;81;20977;-80
2021/06/07 09:20:20;;;;;;;4.00;2.77;;;;;;;23.68;41.42;96951.42;1703264;82;21341;-80
2021/06/07 09:22:56;;;;;;;5.00;3.30;;;;;;;23.68;43.00;96951.95;1705928;82;20953;-79
2021/06/07 09:25:27;;;;;;;3.58;3.27;;;;;;;23.73;42.06;96951.47;1703057;82;21254;-79
2021/06/07 09:28:15;;;;;;;3.92;3.05;;;;;;;23.78;42.98;96949.41;1705874;81;20991;-80
2021/06/07 09:31:08;;;;;;;4.33;3.15;;;;;;;23.76;41.26;96951.52;1712876;82;21016;-79
2021/06/07 09:33:40;;;;;;;3.53;2.90;;;;;;;23.69;41.92;96954.36;1765935;81;20891;-79
2021/06/07 09:36:18;;;;;;;4.50;3.20;;;;;;;23.79;42.12;96953.13;1764413;81;21312;-80
2021/06/07 09:39:16;;;;;;;4.87;3.42;;;;;;;23.74;41.67;96941.65;1749815;80;20989;-80
2021/06/07 09:42:00;;;;;;;4.58;3.95;;;;;;;23.85;40.11;96944.68;1769449;80;20969;-80
2021/06/07 09:44:34;;;;;;;5.10;3.55;;;;;;;23.86;41.07;96949.73;1757382;81;21286;-80
2021/06/07 09:47:14;;;;;;;6.92;3.77;;;;;;;23.92;40.78;96943.44;1769880;81;21317;-80
2021/06/07 09:50:04;;;;;;;5.03;3.85;;;;;;;23.88;41.34;96942.31;1763523;81;20993;-80
2021/06/07 09:52:32;;;;;;;5.35;3.55;;;;;;;23.95;42.93;96940.27;1773304;81;21223;-80
2021/06/07 09:55:21;;;;;;;4.83;3.90;;;;;;;23.99;41.84;96931.27;1743217;80;20970;-80
2021/06/07 09:58:01;;;;;;;5.90;3.77;;;;;;;24.00;39.29;96932.86;1754257;81;20953;-80
2021/06/07 10:00:49;;;;;;;5.67;4.15;;;;;;;23.93;43.25;96937.07;1751454;81;20949;-80
2021/06/07 10:03:27;;;;;;;5.10;3.98;;;;;;;23.98;41.25;96930.20;1771752;80;20929;-80
2021/06/07 10:06:00;;;;;;;5.03;4.00;;;;;;;24.08;41.04;96928.93;1754933;80;20936;-80
2021/06/07 10:08:28;;;;;;;5.30;3.98;;;;;;;24.21;43.23;96927.97;1746916;81;20885;-80
2021/06/07 10:10:54;;;;;;;4.20;3.80;;;;;;;24.25;40.27;96920.32;1732710;81;20969;-80
2021/06/07 10:13:20;;;;;;;6.55;4.60;;;;;;;24.23;43.24;96931.70;1770849;80;21324;-79
2021/06/07 10:15:48;;;;;;;4.80;3.98;;;;;;;24.34;41.77;96925.97;1752201;81;20917;-80
2021/06/07 10:18:20;;;;;;;4.03;3.58;;;;;;;24.26;42.25;96924.57;1755662;81;20976;-80
2021/06/07 10:20:51;;;;;;;4.42;3.65;;;;;;;24.04;42.88;96926.52;1751199;80;20953;-80
2021/06/07 10:23:27;;;;;;;4.55;4.15;;;;;;;23.66;41.40;96927.00;1770442;80;20918;-80
2021/06/07 10:25:55;;;;;;;5.35;3.90;;;;;;;23.33;41.89;96918.70;1746254;81;20945;-80
2021/06/07 10:28:28;;;;;;;4.95;4.00;;;;;;;23.12;42.61;96916.88;1770963;80;20960;-80
2021/06/07 10:30:56;;;;;;;4.55;4.15;;;;;;;23.20;42.75;96915.10;1772447;80;21073;-80
2021/06/07 10:33:36;;;;;;;5.62;4.25;;;;;;;23.45;44.55;96919.36;1779742;80;21293;-80
2021/06/07 10:36:33;;;;;;;5.62;4.05;;;;;;;23.60;43.52;96924.84;1781173;80;20885;-80
2021/06/07 10:39:20;;;;;;;5.67;4.33;;;;;;;23.51;43.24;96914.89;1747964;81;21293;-80
2021/06/07 10:42:11;;;;;;;5.17;4.15;;;;;;;23.59;42.82;96914.45;1756004;80;21003;-80
2021/06/07 10:44:44;;;;;;;5.37;4.37;;;;;;;23.73;46.47;96926.27;1758381;80;20956;-80
2021/06/07 10:47:19;;;;;;;5.55;5.05;;;;;;;23.88;42.75;96920.28;1763427;80;20943;-80
2021/06/07 10:49:58;;;;;;;4.55;3.80;;;;;;;23.98;42.37;96905.78;1772083;81;21238;-80
2021/06/07 10:52:27;;;;;;;4.72;4.22;;;;;;;24.19;42.23;96913.36;1731279;81;20980;-80
2021/06/07 10:55:06;;;;;;;4.58;3.72;;;;;;;24.33;43.51;96913.22;1780677;80;20957;-80
2021/06/07 10:57:41;;;;;;;5.12;4.28;;;;;;;24.48;41.73;96901.89;1757580;80;20924;-80
2021/06/07 11:00:30;;;;;;;4.70;3.80;;;;;;;24.58;41.25;96898.50;1780492;80;20913;-80
2021/06/07 11:03:02;;;;;;;4.70;4.20;;;;;;;24.66;41.53;96899.32;1759229;80;20913;-80
2021/06/07 11:05:32;;;;;;;5.90;3.87;;;;;;;24.69;43.61;96902.78;1766836;80;20928;-80
2021/06/07 11:08:25;;;;;;;5.30;3.60;;;;;;;24.38;41.31;96906.59;1768609;81;20967;-80
2021/06/07 11:11:08;;;;;;;4.42;3.90;;;;;;;24.42;40.64;96900.27;1768591;81;20929;-80
2021/06/07 11:13:54;;;;;;;4.65;3.35;;;;;;;24.54;40.71;96901.64;1764670;81;21044;-80
2021/06/07 11:16:42;;;;;;;5.03;3.47;;;;;;;24.60;42.31;96905.67;1779301;80;20964;-80
2021/06/07 11:19:14;;;;;;;4.35;3.47;;;;;;;24.64;40.15;96903.56;1760654;80;20921;-80
2021/06/07 11:21:49;;;;;;;3.75;3.40;;;;;;;24.70;38.81;96895.08;1780746;80;20999;-80
2021/06/07 11:24:34;;;;;;;4.47;3.30;;;;;;;24.79;39.00;96898.32;1764044;80;21044;-80
2021/06/07 11:27:03;;;;;;;4.47;3.27;;;;;;;24.86;37.79;96900.73;1779142;80;21000;-80
2021/06/07 11:29:29;;;;;;;4.05;3.50;;;;;;;24.92;37.57;96883.76;1779288;80;20948;-80
2021/06/07 11:31:58;;;;;;;5.20;3.67;;;;;;;24.93;37.97;96886.69;1780035;80;20989;-80
2021/06/07 11:34:48;;;;;;;5.17;3.12;;;;;;;24.92;36.96;96894.39;1754572;81;20969;-80
2021/06/07 11:37:34;;;;;;;4.58;3.62;;;;;;;24.92;37.67;96878.97;1761936;81;20940;-80
2021/06/07 11:40:09;;;;;;;3.35;2.95;;;;;;;25.06;39.74;96888.89;1779036;80;21211;-80
2021/06/07 11:42:54;;;;;;;5.42;3.70;;;;;;;25.09;39.63;96887.03;1756997;81;20997;-80